Accueil
METAR-TAF:

METAR-TAF

Aéroports :

Aéroport international de Bergame-Orio al Serio (Le Caravage)

Bergame, Italie

latitude: 45-40N, longitude: 009-42E, altitude: 238 m

Observation

Le bulletin a été fait il y a 10 minutes, à 13:50 UTC
Vent 5 kt de ouest/nord-ouest, variant entre ouest et nord
Température 28°C
Humidité 48%
Pression 1021 hPa
Visibilité 10 km ou plus
pas de nuages en-dessous de 1500 mètres et pas de cumulonimbus.

METAR: LIME 221350Z 29005KT 260V010 CAVOK 28/16 Q1021 NOSIG

Heure: 16:00 (14:00 UTC)

Prévision

Le bulletin a été fait il y a 3 heures et 0 minutes, à 11:00 UTC
Prévision valable du 22 à 12 UTC au 23 à 12 UTC
Vent 5 kt de direction variable
Visibilité 10 km ou plus
Nuages épars à une hauteur de 5000 ft
Temporairement
du 23 à 09 UTC au 23 à 12 UTC
orage, pluie

TAF: LIME 221100Z 2212/2312 VRB05KT 9999 SCT050 TEMPO 2309/2312 TSRA

Observations et prévisions météorologiques de plus de 4000 aéroports (messages METAR et TAF).

Les stations disponibles sont représentées par des disques jaunes et rouges sur la carte.

Passer la souris dessus pour voir le nom de la station.

Cliquer dessus pour voir les observations et prévisions météorologiques.

Pour changer de carte: cliquez sur les boutons verts avec une croix noire pour zoomer, sur le bouton vert avec un tiret pour effectuer un zoom arrière, ou sur les flèches vertes pour les cartes adjacentes.


METAR-TAF: